Time,TemperatureF,DewpointF,PressureIn,WindDirection,WindDirectionDegrees,WindSpeedMPH,WindSpeedGustMPH,Humidity,HourlyPrecipIn,Conditions,Clouds,dailyrainin,SoftwareType,DateUTC
2013-02-18 00:02:00,36.0,30.0,30.27,NNW,339,0.0,0.0,78,0.00,,,0.00,,2013-02-18 05:02:00,
2013-02-18 00:11:00,36.0,30.0,30.27,NNW,339,0.0,0.0,78,0.00,,,0.00,,2013-02-18 05:11:00,
2013-02-18 00:21:00,36.0,30.0,30.27,NNW,339,0.0,0.0,78,0.00,,,0.00,,2013-02-18 05:21:00,
2013-02-18 00:32:00,36.0,30.0,30.27,NNW,339,0.0,0.0,78,0.00,,,0.00,,2013-02-18 05:32:00,
2013-02-18 00:42:00,36.0,30.0,30.27,NNW,339,0.0,0.0,78,0.00,,,0.00,,2013-02-18 05:42:00,
2013-02-18 00:52:00,35.0,29.0,30.27,NNW,339,0.0,0.0,78,0.00,,,0.00,,2013-02-18 05:52:00,
2013-02-18 01:02:00,35.0,29.0,30.27,NNW,339,0.0,0.0,79,0.00,,,0.00,,2013-02-18 06:02:00,
2013-02-18 01:11:00,35.0,29.0,30.27,NNW,339,0.0,0.0,79,0.00,,,0.00,,2013-02-18 06:11:00,
2013-02-18 01:22:00,34.0,28.0,30.27,NNW,339,0.0,0.0,79,0.00,,,0.00,,2013-02-18 06:22:00,
2013-02-18 01:32:00,34.0,28.0,30.27,NNW,345,0.0,0.0,80,0.00,,,0.00,,2013-02-18 06:32:00,
2013-02-18 01:42:00,34.0,28.0,30.27,NNW,345,0.0,0.0,80,0.00,,,0.00,,2013-02-18 06:42:00,
2013-02-18 01:52:00,34.0,29.0,30.26,East,87,0.0,0.0,81,0.00,,,0.00,,2013-02-18 06:52:00,
2013-02-18 02:01:00,34.0,29.0,30.26,NE,48,0.0,0.0,82,0.00,,,0.00,,2013-02-18 07:01:00,
2013-02-18 02:11:00,34.0,29.0,30.26,NE,48,0.0,0.0,82,0.00,,,0.00,,2013-02-18 07:11:00,
2013-02-18 02:22:00,34.0,29.0,30.26,ENE,57,0.0,0.0,82,0.00,,,0.00,,2013-02-18 07:22:00,
2013-02-18 02:32:00,35.0,30.0,30.25,ENE,71,0.0,1.0,82,0.00,,,0.00,,2013-02-18 07:32:00,
2013-02-18 02:42:00,35.0,30.0,30.25,ENE,71,0.0,1.0,82,0.00,,,0.00,,2013-02-18 07:42:00,
2013-02-18 02:52:00,35.0,30.0,30.25,NE,38,0.0,0.0,82,0.00,,,0.00,,2013-02-18 07:52:00,
2013-02-18 03:01:00,36.0,31.0,30.24,NE,44,0.0,0.0,81,0.00,,,0.00,,2013-02-18 08:01:00,
2013-02-18 03:11:00,36.0,31.0,30.24,NE,44,0.0,0.0,81,0.00,,,0.00,,2013-02-18 08:11:00,
2013-02-18 03:21:00,36.0,30.0,30.25,NE,49,0.0,0.0,80,0.00,,,0.00,,2013-02-18 08:21:00,
2013-02-18 03:32:00,36.0,30.0,30.25,NE,51,0.0,0.0,79,0.00,,,0.00,,2013-02-18 08:32:00,
2013-02-18 03:42:00,36.0,30.0,30.25,NE,51,0.0,0.0,79,0.00,,,0.00,,2013-02-18 08:42:00,
2013-02-18 03:52:00,36.0,30.0,30.25,NE,42,0.0,0.0,79,0.00,,,0.00,,2013-02-18 08:52:00,
2013-02-18 04:03:00,36.0,30.0,30.24,NE,49,0.0,0.0,79,0.00,,,0.00,,2013-02-18 09:03:00,
2013-02-18 04:11:00,36.0,30.0,30.24,NE,49,0.0,0.0,79,0.00,,,0.00,,2013-02-18 09:11:00,
2013-02-18 04:22:00,35.0,29.0,30.24,East,84,0.0,0.0,79,0.00,,,0.00,,2013-02-18 09:22:00,
2013-02-18 04:32:00,35.0,29.0,30.25,East,84,0.0,0.0,79,0.00,,,0.00,,2013-02-18 09:32:00,
2013-02-18 04:42:00,35.0,29.0,30.25,East,84,0.0,0.0,79,0.00,,,0.00,,2013-02-18 09:42:00,
2013-02-18 04:52:00,35.0,29.0,30.24,East,84,0.0,0.0,79,0.00,,,0.00,,2013-02-18 09:52:00,
2013-02-18 05:01:00,34.0,28.0,30.24,East,84,0.0,0.0,79,0.00,,,0.00,,2013-02-18 10:01:00,
2013-02-18 05:11:00,34.0,28.0,30.24,East,84,0.0,0.0,79,0.00,,,0.00,,2013-02-18 10:11:00,
2013-02-18 05:22:00,34.0,28.0,30.24,East,84,0.0,0.0,80,0.00,,,0.00,,2013-02-18 10:22:00,
2013-02-18 05:32:00,33.0,28.0,30.24,East,84,0.0,0.0,81,0.00,,,0.00,,2013-02-18 10:32:00,
2013-02-18 05:42:00,33.0,28.0,30.24,East,84,0.0,0.0,81,0.00,,,0.00,,2013-02-18 10:42:00,
2013-02-18 05:53:00,33.0,28.0,30.24,East,84,0.0,0.0,81,0.00,,,0.00,,2013-02-18 10:53:00,
2013-02-18 06:02:00,33.0,28.0,30.25,East,84,0.0,0.0,82,0.00,,,0.00,,2013-02-18 11:02:00,
2013-02-18 06:11:00,33.0,28.0,30.25,East,84,0.0,0.0,82,0.00,,,0.00,,2013-02-18 11:11:00,
2013-02-18 06:22:00,32.0,27.0,30.25,East,84,0.0,0.0,82,0.00,,,0.00,,2013-02-18 11:22:00,
2013-02-18 06:32:00,32.0,27.0,30.26,East,84,0.0,0.0,82,0.00,,,0.00,,2013-02-18 11:32:00,
2013-02-18 06:42:00,32.0,27.0,30.26,East,84,0.0,0.0,82,0.00,,,0.00,,2013-02-18 11:42:00,
2013-02-18 06:52:00,32.0,27.0,30.26,East,84,0.0,0.0,82,0.00,,,0.00,,2013-02-18 11:52:00,
2013-02-18 07:02:00,31.0,26.0,30.26,East,84,0.0,0.0,82,0.00,,,0.00,,2013-02-18 12:02:00,
2013-02-18 07:12:00,31.0,26.0,30.26,East,84,0.0,0.0,82,0.00,,,0.00,,2013-02-18 12:12:00,
2013-02-18 07:22:00,31.0,26.0,30.25,East,84,0.0,0.0,83,0.00,,,0.00,,2013-02-18 12:22:00,
2013-02-18 07:32:00,31.0,26.0,30.25,East,84,0.0,0.0,83,0.00,,,0.00,,2013-02-18 12:32:00,
2013-02-18 07:42:00,31.0,26.0,30.25,East,84,0.0,0.0,83,0.00,,,0.00,,2013-02-18 12:42:00,
2013-02-18 07:53:00,30.0,26.0,30.25,ENE,69,0.0,0.0,84,0.00,,,0.00,,2013-02-18 12:53:00,
2013-02-18 08:03:00,32.0,28.0,30.25,ENE,69,0.0,0.0,86,0.00,,,0.00,,2013-02-18 13:03:00,
2013-02-18 08:12:00,32.0,28.0,30.25,ENE,69,0.0,0.0,86,0.00,,,0.00,,2013-02-18 13:12:00,
2013-02-18 08:23:00,33.0,30.0,30.26,ENE,69,0.0,0.0,87,0.00,,,0.00,,2013-02-18 13:23:00,
2013-02-18 08:32:00,35.0,32.0,30.26,ENE,69,0.0,0.0,88,0.00,,,0.00,,2013-02-18 13:32:00,
2013-02-18 08:42:00,35.0,32.0,30.26,ENE,69,0.0,0.0,88,0.00,,,0.00,,2013-02-18 13:42:00,
2013-02-18 08:53:00,41.0,37.0,30.27,ENE,66,0.0,1.0,87,0.00,,,0.00,,2013-02-18 13:53:00,
2013-02-18 09:02:00,45.0,38.0,30.27,ENE,69,1.0,3.0,77,0.00,,,0.00,,2013-02-18 14:02:00,
2013-02-18 09:11:00,45.0,38.0,30.27,ENE,69,1.0,3.0,77,0.00,,,0.00,,2013-02-18 14:11:00,
2013-02-18 09:22:00,50.0,33.0,30.27,ENE,77,4.0,7.0,52,0.00,,,0.00,,2013-02-18 14:22:00,
2013-02-18 09:33:00,53.0,30.0,30.27,East,88,6.0,8.0,41,0.00,,,0.00,,2013-02-18 14:33:00,
2013-02-18 09:54:00,54.0,28.0,30.27,ENE,76,8.0,11.0,36,0.00,,,0.00,,2013-02-18 14:54:00,
2013-02-18 10:02:00,56.0,29.0,30.27,ENE,66,2.0,4.0,35,0.00,,,0.00,,2013-02-18 15:02:00,
2013-02-18 10:22:00,58.0,29.0,30.27,East,90,7.0,10.0,33,0.00,,,0.00,,2013-02-18 15:22:00,
2013-02-18 10:32:00,59.0,30.0,30.27,East,81,10.0,13.0,33,0.00,,,0.00,,2013-02-18 15:32:00,
2013-02-18 10:53:00,59.0,31.0,30.27,ENE,62,5.0,9.0,34,0.00,,,0.00,,2013-02-18 15:53:00,
2013-02-18 11:03:00,60.0,34.0,30.27,NE,50,4.0,9.0,38,0.00,,,0.00,,2013-02-18 16:03:00,
2013-02-18 11:12:00,60.0,34.0,30.27,NE,50,4.0,9.0,38,0.00,,,0.00,,2013-02-18 16:12:00,
2013-02-18 11:22:00,60.0,34.0,30.27,NE,50,4.0,9.0,38,0.00,,,0.00,,2013-02-18 16:22:00,
2013-02-18 11:32:00,62.0,35.0,30.27,ESE,107,4.0,9.0,36,0.00,,,0.00,,2013-02-18 16:32:00,
2013-02-18 11:42:00,62.0,35.0,30.27,ESE,107,4.0,9.0,36,0.00,,,0.00,,2013-02-18 16:42:00,
2013-02-18 11:53:00,64.0,37.0,30.26,East,98,8.0,11.0,36,0.00,,,0.00,,2013-02-18 16:53:00,
2013-02-18 12:04:00,64.0,38.0,30.25,East,88,7.0,10.0,38,0.00,,,0.00,,2013-02-18 17:04:00,
2013-02-18 12:12:00,64.0,38.0,30.25,East,88,7.0,10.0,38,0.00,,,0.00,,2013-02-18 17:12:00,
2013-02-18 12:22:00,66.0,38.0,30.25,East,96,8.0,13.0,35,0.00,,,0.00,,2013-02-18 17:22:00,
2013-02-18 12:32:00,65.0,37.0,30.23,South,187,4.0,7.0,36,0.00,,,0.00,,2013-02-18 17:32:00,
2013-02-18 12:42:00,65.0,37.0,30.23,South,187,4.0,7.0,36,0.00,,,0.00,,2013-02-18 17:42:00,
2013-02-18 12:53:00,66.0,39.0,30.23,East,82,4.0,13.0,37,0.00,,,0.00,,2013-02-18 17:53:00,
2013-02-18 13:02:00,67.0,41.0,30.22,ESE,119,6.0,10.0,38,0.00,,,0.00,,2013-02-18 18:02:00,
2013-02-18 13:12:00,67.0,41.0,30.22,ESE,119,6.0,10.0,38,0.00,,,0.00,,2013-02-18 18:12:00,
2013-02-18 13:23:00,68.0,41.0,30.21,East,101,7.0,9.0,38,0.00,,,0.00,,2013-02-18 18:23:00,
2013-02-18 13:33:00,69.0,42.0,30.19,East,90,10.0,16.0,38,0.00,,,0.00,,2013-02-18 18:33:00,
2013-02-18 13:42:00,69.0,42.0,30.19,East,90,10.0,16.0,38,0.00,,,0.00,,2013-02-18 18:42:00,
2013-02-18 13:53:00,69.0,42.0,30.18,East,86,6.0,19.0,38,0.00,,,0.00,,2013-02-18 18:53:00,
2013-02-18 14:03:00,69.0,42.0,30.18,East,85,6.0,14.0,37,0.00,,,0.00,,2013-02-18 19:03:00,
2013-02-18 14:12:00,69.0,42.0,30.18,East,85,6.0,14.0,37,0.00,,,0.00,,2013-02-18 19:12:00,
2013-02-18 14:22:00,70.0,43.0,30.17,East,91,6.0,8.0,37,0.00,,,0.00,,2013-02-18 19:22:00,
2013-02-18 14:33:00,69.0,42.0,30.17,East,84,12.0,17.0,38,0.00,,,0.00,,2013-02-18 19:33:00,
2013-02-18 14:43:00,69.0,42.0,30.17,East,84,12.0,17.0,38,0.00,,,0.00,,2013-02-18 19:43:00,
2013-02-18 14:52:00,68.0,41.0,30.16,East,97,5.0,9.0,37,0.00,,,0.00,,2013-02-18 19:52:00,
2013-02-18 15:03:00,70.0,41.0,30.16,East,94,2.0,8.0,35,0.00,,,0.00,,2013-02-18 20:03:00,
2013-02-18 15:12:00,70.0,41.0,30.16,East,94,2.0,8.0,35,0.00,,,0.00,,2013-02-18 20:12:00,
2013-02-18 15:23:00,70.0,41.0,30.16,ESE,109,4.0,8.0,35,0.00,,,0.00,,2013-02-18 20:23:00,
2013-02-18 15:33:00,70.0,42.0,30.16,East,89,9.0,14.0,36,0.00,,,0.00,,2013-02-18 20:33:00,
2013-02-18 15:42:00,70.0,42.0,30.16,East,89,9.0,14.0,36,0.00,,,0.00,,2013-02-18 20:42:00,
2013-02-18 15:53:00,70.0,42.0,30.15,East,88,2.0,9.0,36,0.00,,,0.00,,2013-02-18 20:53:00,
2013-02-18 16:03:00,71.0,43.0,30.15,ESE,121,2.0,5.0,37,0.00,,,0.00,,2013-02-18 21:03:00,
2013-02-18 16:12:00,71.0,43.0,30.15,ESE,121,2.0,5.0,37,0.00,,,0.00,,2013-02-18 21:12:00,
2013-02-18 16:22:00,71.0,41.0,30.15,East,94,7.0,11.0,34,0.00,,,0.00,,2013-02-18 21:22:00,
2013-02-18 16:32:00,69.0,42.0,30.15,SSE,148,0.0,0.0,37,0.00,,,0.00,,2013-02-18 21:32:00,
2013-02-18 16:42:00,69.0,42.0,30.15,SSE,148,0.0,0.0,37,0.00,,,0.00,,2013-02-18 21:42:00,
2013-02-18 16:53:00,70.0,42.0,30.15,ESE,118,3.0,7.0,36,0.00,,,0.00,,2013-02-18 21:53:00,
2013-02-18 17:03:00,69.0,42.0,30.15,ESE,106,3.0,7.0,38,0.00,,,0.00,,2013-02-18 22:03:00,
2013-02-18 17:12:00,69.0,41.0,30.14,SSE,148,2.0,10.0,36,0.00,,,0.00,,2013-02-18 22:12:00,
2013-02-18 17:23:00,69.0,41.0,30.14,SSE,148,2.0,10.0,36,0.00,,,0.00,,2013-02-18 22:23:00,
2013-02-18 17:33:00,69.0,42.0,30.14,ESE,108,1.0,4.0,38,0.00,,,0.00,,2013-02-18 22:33:00,
2013-02-18 17:43:00,69.0,42.0,30.14,ESE,108,1.0,4.0,38,0.00,,,0.00,,2013-02-18 22:43:00,
2013-02-18 17:54:00,68.0,42.0,30.15,East,79,1.0,2.0,39,0.00,,,0.00,,2013-02-18 22:54:00,
2013-02-18 18:02:00,67.0,42.0,30.15,SE,137,0.0,1.0,40,0.00,,,0.00,,2013-02-18 23:02:00,
2013-02-18 18:12:00,67.0,42.0,30.15,SE,137,0.0,1.0,40,0.00,,,0.00,,2013-02-18 23:12:00,
2013-02-18 18:23:00,66.0,42.0,30.15,SE,131,1.0,5.0,42,0.00,,,0.00,,2013-02-18 23:23:00,
2013-02-18 18:33:00,66.0,43.0,30.15,East,80,0.0,1.0,43,0.00,,,0.00,,2013-02-18 23:33:00,
2013-02-18 18:43:00,66.0,43.0,30.15,East,80,0.0,1.0,43,0.00,,,0.00,,2013-02-18 23:43:00,
2013-02-18 18:53:00,65.0,43.0,30.15,SE,139,0.0,0.0,45,0.00,,,0.00,,2013-02-18 23:53:00,
2013-02-18 19:03:00,64.0,43.0,30.15,SE,131,0.0,0.0,46,0.00,,,0.00,,2013-02-19 00:03:00,
2013-02-18 19:12:00,64.0,43.0,30.15,SE,131,0.0,0.0,46,0.00,,,0.00,,2013-02-19 00:12:00,
2013-02-18 19:23:00,62.0,42.0,30.15,ESE,117,0.0,0.0,47,0.00,,,0.00,,2013-02-19 00:23:00,
2013-02-18 19:34:00,61.0,42.0,30.15,ESE,111,0.0,0.0,50,0.00,,,0.00,,2013-02-19 00:34:00,
2013-02-18 19:43:00,61.0,42.0,30.15,ESE,111,0.0,0.0,50,0.00,,,0.00,,2013-02-19 00:43:00,
2013-02-18 19:55:00,60.0,42.0,30.15,SE,145,0.0,0.0,51,0.00,,,0.00,,2013-02-19 00:55:00,
2013-02-18 20:03:00,59.0,42.0,30.15,ESE,111,0.0,0.0,53,0.00,,,0.00,,2013-02-19 01:03:00,
2013-02-18 20:14:00,59.0,42.0,30.15,ESE,111,0.0,0.0,53,0.00,,,0.00,,2013-02-19 01:14:00,
2013-02-18 20:24:00,58.0,42.0,30.15,SE,144,0.0,0.0,56,0.00,,,0.00,,2013-02-19 01:24:00,
2013-02-18 20:34:00,58.0,43.0,30.16,ESE,121,0.0,0.0,57,0.00,,,0.00,,2013-02-19 01:34:00,
2013-02-18 20:44:00,58.0,43.0,30.16,ESE,121,0.0,0.0,57,0.00,,,0.00,,2013-02-19 01:44:00,
2013-02-18 20:56:00,57.0,42.0,30.16,ESE,111,0.0,0.0,58,0.00,,,0.00,,2013-02-19 01:56:00,
2013-02-18 21:03:00,57.0,43.0,30.16,ESE,112,0.0,0.0,59,0.00,,,0.00,,2013-02-19 02:03:00,
2013-02-18 21:14:00,57.0,43.0,30.16,ESE,112,0.0,0.0,59,0.00,,,0.00,,2013-02-19 02:14:00,
2013-02-18 21:23:00,57.0,43.0,30.16,East,99,0.0,0.0,60,0.00,,,0.00,,2013-02-19 02:23:00,
2013-02-18 21:34:00,57.0,44.0,30.16,East,88,0.0,1.0,61,0.00,,,0.00,,2013-02-19 02:34:00,
2013-02-18 21:43:00,57.0,44.0,30.16,East,88,0.0,1.0,61,0.00,,,0.00,,2013-02-19 02:43:00,
2013-02-18 21:55:00,57.0,44.0,30.16,ESE,107,0.0,0.0,62,0.00,,,0.00,,2013-02-19 02:55:00,
2013-02-18 22:06:00,57.0,45.0,30.16,ESE,105,1.0,5.0,65,0.00,,,0.00,,2013-02-19 03:06:00,
2013-02-18 22:15:00,57.0,45.0,30.16,ESE,105,1.0,5.0,65,0.00,,,0.00,,2013-02-19 03:15:00,
2013-02-18 22:24:00,57.0,45.0,30.15,South,171,2.0,5.0,65,0.00,,,0.00,,2013-02-19 03:24:00,
2013-02-18 22:35:00,57.0,46.0,30.15,ESE,109,0.0,0.0,67,0.00,,,0.00,,2013-02-19 03:35:00,
2013-02-18 22:44:00,57.0,46.0,30.15,ESE,109,0.0,0.0,67,0.00,,,0.00,,2013-02-19 03:44:00,
2013-02-18 22:53:00,57.0,46.0,30.15,East,82,0.0,2.0,67,0.00,,,0.00,,2013-02-19 03:53:00,
2013-02-18 23:03:00,56.0,45.0,30.14,ESE,103,0.0,0.0,66,0.00,,,0.00,,2013-02-19 04:03:00,
2013-02-18 23:14:00,56.0,45.0,30.14,ESE,103,0.0,0.0,66,0.00,,,0.00,,2013-02-19 04:14:00,
2013-02-18 23:23:00,56.0,45.0,30.14,SSE,162,0.0,2.0,67,0.00,,,0.00,,2013-02-19 04:23:00,
2013-02-18 23:34:00,56.0,46.0,30.14,East,85,0.0,0.0,68,0.00,,,0.00,,2013-02-19 04:34:00,
2013-02-18 23:44:00,56.0,46.0,30.14,East,85,0.0,0.0,68,0.00,,,0.00,,2013-02-19 04:44:00,
2013-02-18 23:55:00,55.0,45.0,30.13,SE,132,1.0,3.0,69,0.00,,,0.00,,2013-02-19 04:55:00,